Airfield :
LOGIN :

Register | Disclaimer

   EN    FR    IT 

 










Legend :    VFR   Marginal VFR   IFR   Intensive IFR   Very Intensive IFR
Visi :
Ceiling :
>= 8 km
>= 3000ft
5 to 8 km
1000 to 3000 ft
1500m to 5 km
500 to 1000 ft
800 to 1500m
200 to 500 ft
< 800m
< 200 ft
Symbols :   Thunderstorms  Fog  Heavy snow  Heavy precipitations  Wind > 20 kt
SIGMETs :     Misc.  Thunderstorms  Icing  Turbulence  Mountain Waves  Volcanic Ashes






- Airport Elevation : 3 ft
- IATA code : DHR


EHKD - Den Helder De Kooy

CURRENT METAR :
  • 120525Z AUTO 09005KT 060V130 9999 BKN140 23/20 Q1015 BLU NOSIG

EXPIRED METARs :
  • 120455Z AUTO 09006KT 9999 OVC170 23/19 Q1015 BLU NOSIG
  • 120430Z AUTO 10003KT 060V140 9999 OVC170 23/19 Q1015 BLU NOSIG
  • 120355Z AUTO 08006KT 9999 OVC180 24/19 Q1014 BLU
  • 120325Z AUTO 08005KT 9999 SCT190 24/19 Q1014 BLU
  • 120305Z AUTO 09005KT 9999 SCT190 23/21 Q1014 BLU
  • 120255Z AUTO 09005KT 9999 NCD 23/20 Q1014 BLU

TAF TAF EHKD
Valid from the 12 at 05:00 until the 12 at 17:00 UTC


120440Z 1205/1217 09005KT CAVOK
PROB30
TEMPO 1214/1217 VRB10G20KT 4000 TSRA SCT050CB



MET'MAP, your aeronautical weather chart ! - Copyright ORBIFLY December 2007 - Disclaimer

ORBIFLY MET'MAP TEAM :

Programming & Development : Alexandra Zaïnal
Concept & original design : Baudouin d'Aumeries
Assistance for programming : Marc-Olivier Méhu
Technical & hardware support : Manuel Goepfert

Contact : metmap@orbifly.com




SOURCES & CREDITS :

   NOAA